Mansonville, Canada
Current Conditions -  °F | °C
As of 11:15 AM on Friday 24 Oct 2014 (Local Time) from KEFK Reporting Station
Drizzle Drizzle  
Wind Chill: 36°   Ceiling: 600
Heat Index: 40°   Visibility: 1.2mi
Dew Point: 40°   Wind: 6mph
Humidity: 98%   Direction: 310°NW
Pressure: 29.82"   Gusts: NA
Location:  45.05°N, 72.39°W
Report Text: KEFK 241515Z AUTO 31005KT 1 1/4SM -DZ OVC006 05/04 A2982 RMK AO2 T00470044
Loading
Personal Weather Stations






























Interactive Weather Map
Tropical Storm Tracking
New forecast layout! Learn more

10-Day Weather Forecast

Advertisements
Track Severe Weather on mobile